sensor_id;sensor_type;location;lat;lon;timestamp;pressure;altitude;pressure_sealevel;temperature;humidity
9281;BME280;4679;47.966;7.958;2023-08-30T06:37:58;96543.91;;;12.58;87.68
9281;BME280;4679;47.966;7.958;2023-08-30T06:39:59;96547.63;;;12.62;87.88
9281;BME280;4679;47.966;7.958;2023-08-30T06:42:04;96550.28;;;12.62;87.89
9281;BME280;4679;47.966;7.958;2023-08-30T06:44:05;96550.78;;;12.69;87.54
9281;BME280;4679;47.966;7.958;2023-08-30T06:46:07;96552.66;;;12.74;87.76
9281;BME280;4679;47.966;7.958;2023-08-30T06:48:09;96547.31;;;12.79;88.00
9281;BME280;4679;47.966;7.958;2023-08-30T06:50:11;96544.38;;;12.81;87.88
9281;BME280;4679;47.966;7.958;2023-08-30T06:52:12;96540.34;;;12.83;87.64
9281;BME280;4679;47.966;7.958;2023-08-30T06:54:15;96539.59;;;12.83;87.61
9281;BME280;4679;47.966;7.958;2023-08-30T06:56:17;96541.16;;;12.84;87.67
9281;BME280;4679;47.966;7.958;2023-08-30T06:58:19;96538.47;;;12.89;87.89
9281;BME280;4679;47.966;7.958;2023-08-30T07:00:21;96539.59;;;12.83;87.63
9281;BME280;4679;47.966;7.958;2023-08-30T07:02:22;96537.44;;;12.85;87.49
9281;BME280;4679;47.966;7.958;2023-08-30T07:04:23;96540.63;;;12.87;87.30
9281;BME280;4679;47.966;7.958;2023-08-30T07:06:25;96541.41;;;12.92;87.56
9281;BME280;4679;47.966;7.958;2023-08-30T07:08:30;96543.50;;;13.00;87.39
9281;BME280;4679;47.966;7.958;2023-08-30T07:10:34;96532.53;;;13.12;87.06
9281;BME280;4679;47.966;7.958;2023-08-30T07:12:35;96536.25;;;13.21;87.48
9281;BME280;4679;47.966;7.958;2023-08-30T07:14:37;96544.22;;;13.26;87.03
9281;BME280;4679;47.966;7.958;2023-08-30T07:16:38;96537.22;;;13.35;86.89
9281;BME280;4679;47.966;7.958;2023-08-30T07:18:40;96543.28;;;13.46;86.50
9281;BME280;4679;47.966;7.958;2023-08-30T07:20:42;96530.19;;;13.55;86.38
9281;BME280;4679;47.966;7.958;2023-08-30T07:22:44;96535.97;;;13.67;86.16
9281;BME280;4679;47.966;7.958;2023-08-30T07:24:46;96539.63;;;13.76;86.01
9281;BME280;4679;47.966;7.958;2023-08-30T07:26:49;96540.66;;;13.85;86.12
9281;BME280;4679;47.966;7.958;2023-08-30T07:28:51;96537.16;;;13.90;86.01
9281;BME280;4679;47.966;7.958;2023-08-30T07:30:52;96544.53;;;13.98;85.90
9281;BME280;4679;47.966;7.958;2023-08-30T07:33:03;96547.69;;;14.05;85.51
9281;BME280;4679;47.966;7.958;2023-08-30T07:35:05;96539.38;;;14.06;85.59
9281;BME280;4679;47.966;7.958;2023-08-30T07:37:17;96540.41;;;14.16;85.83
9281;BME280;4679;47.966;7.958;2023-08-30T07:39:18;96543.75;;;14.26;85.08
9281;BME280;4679;47.966;7.958;2023-08-30T07:41:20;96538.31;;;14.36;85.12
9281;BME280;4679;47.966;7.958;2023-08-30T07:43:23;96534.53;;;14.48;85.16
9281;BME280;4679;47.966;7.958;2023-08-30T07:45:25;96538.16;;;14.57;85.17
9281;BME280;4679;47.966;7.958;2023-08-30T07:47:26;96535.16;;;14.63;84.47
9281;BME280;4679;47.966;7.958;2023-08-30T07:49:28;96529.47;;;14.70;84.75
9281;BME280;4679;47.966;7.958;2023-08-30T07:51:29;96530.72;;;14.77;84.79
9281;BME280;4679;47.966;7.958;2023-08-30T07:53:31;96531.91;;;14.90;84.23
9281;BME280;4679;47.966;7.958;2023-08-30T07:55:32;96525.78;;;14.90;84.28
9281;BME280;4679;47.966;7.958;2023-08-30T07:57:33;96527.88;;;14.93;84.07
9281;BME280;4679;47.966;7.958;2023-08-30T07:59:37;96529.91;;;15.01;84.57
9281;BME280;4679;47.966;7.958;2023-08-30T08:01:38;96524.81;;;15.04;84.29
9281;BME280;4679;47.966;7.958;2023-08-30T08:03:39;96525.53;;;15.10;84.17
9281;BME280;4679;47.966;7.958;2023-08-30T08:05:42;96514.44;;;15.22;83.35
9281;BME280;4679;47.966;7.958;2023-08-30T08:07:43;96509.72;;;15.32;83.72
9281;BME280;4679;47.966;7.958;2023-08-30T08:09:45;96514.63;;;15.44;83.34
9281;BME280;4679;47.966;7.958;2023-08-30T08:11:45;96522.53;;;15.54;83.08
9281;BME280;4679;47.966;7.958;2023-08-30T08:13:47;96520.72;;;15.49;82.48
9281;BME280;4679;47.966;7.958;2023-08-30T08:15:50;96514.28;;;15.51;82.90
9281;BME280;4679;47.966;7.958;2023-08-30T08:17:52;96516.97;;;15.51;83.17
9281;BME280;4679;47.966;7.958;2023-08-30T08:19:53;96513.22;;;15.52;82.47
9281;BME280;4679;47.966;7.958;2023-08-30T08:21:55;96516.03;;;15.60;82.10
9281;BME280;4679;47.966;7.958;2023-08-30T08:23:58;96507.78;;;15.75;81.87
9281;BME280;4679;47.966;7.958;2023-08-30T08:26:00;96510.44;;;15.94;82.16
9281;BME280;4679;47.966;7.958;2023-08-30T08:28:03;96506.09;;;15.98;81.67
9281;BME280;4679;47.966;7.958;2023-08-30T08:30:06;96507.75;;;15.94;81.88
9281;BME280;4679;47.966;7.958;2023-08-30T08:32:09;96516.59;;;15.95;81.59
9281;BME280;4679;47.966;7.958;2023-08-30T08:34:12;96513.16;;;16.08;80.94
9281;BME280;4679;47.966;7.958;2023-08-30T08:36:14;96513.94;;;16.08;80.84
9281;BME280;4679;47.966;7.958;2023-08-30T08:38:14;96517.94;;;16.11;81.19
9281;BME280;4679;47.966;7.958;2023-08-30T08:40:16;96517.75;;;16.21;81.15
9281;BME280;4679;47.966;7.958;2023-08-30T08:42:19;96514.69;;;16.28;80.66
9281;BME280;4679;47.966;7.958;2023-08-30T08:44:22;96514.91;;;16.31;80.36
9281;BME280;4679;47.966;7.958;2023-08-30T08:46:26;96518.88;;;16.34;80.16
9281;BME280;4679;47.966;7.958;2023-08-30T08:48:35;96514.41;;;16.29;80.58
9281;BME280;4679;47.966;7.958;2023-08-30T08:50:41;96511.44;;;16.31;80.45
9281;BME280;4679;47.966;7.958;2023-08-30T08:52:43;96514.13;;;16.31;79.96
9281;BME280;4679;47.966;7.958;2023-08-30T08:54:45;96512.13;;;16.36;80.07
9281;BME280;4679;47.966;7.958;2023-08-30T08:56:46;96518.13;;;16.47;80.40
9281;BME280;4679;47.966;7.958;2023-08-30T08:58:49;96524.84;;;16.44;79.79
9281;BME280;4679;47.966;7.958;2023-08-30T09:00:51;96519.00;;;16.42;79.65
9281;BME280;4679;47.966;7.958;2023-08-30T09:02:54;96523.75;;;16.45;79.25
9281;BME280;4679;47.966;7.958;2023-08-30T09:04:57;96518.50;;;16.54;79.33
9281;BME280;4679;47.966;7.958;2023-08-30T09:06:59;96521.59;;;16.61;78.97
9281;BME280;4679;47.966;7.958;2023-08-30T09:09:02;96525.50;;;16.69;78.59
9281;BME280;4679;47.966;7.958;2023-08-30T09:11:05;96530.25;;;16.72;78.50
9281;BME280;4679;47.966;7.958;2023-08-30T09:13:06;96521.03;;;16.64;79.07
9281;BME280;4679;47.966;7.958;2023-08-30T09:15:08;96527.03;;;16.56;78.62
9281;BME280;4679;47.966;7.958;2023-08-30T09:17:10;96528.63;;;16.57;78.46
9281;BME280;4679;47.966;7.958;2023-08-30T09:19:12;96521.38;;;16.58;78.43
9281;BME280;4679;47.966;7.958;2023-08-30T09:21:15;96529.44;;;16.58;78.28
9281;BME280;4679;47.966;7.958;2023-08-30T09:23:17;96529.44;;;16.58;78.06
9281;BME280;4679;47.966;7.958;2023-08-30T09:25:24;96530.72;;;16.60;77.94
9281;BME280;4679;47.966;7.958;2023-08-30T09:27:31;96528.28;;;16.64;77.77
9281;BME280;4679;47.966;7.958;2023-08-30T09:29:32;96530.16;;;16.63;77.63
9281;BME280;4679;47.966;7.958;2023-08-30T09:31:34;96532.72;;;16.68;77.86
9281;BME280;4679;47.966;7.958;2023-08-30T09:33:36;96532.75;;;16.82;77.61
9281;BME280;4679;47.966;7.958;2023-08-30T09:35:44;96529.59;;;16.94;77.32
9281;BME280;4679;47.966;7.958;2023-08-30T09:37:47;96531.56;;;17.02;76.68
9281;BME280;4679;47.966;7.958;2023-08-30T09:39:49;96533.06;;;17.08;76.00
9281;BME280;4679;47.966;7.958;2023-08-30T09:41:53;96531.53;;;17.15;76.58
9281;BME280;4679;47.966;7.958;2023-08-30T09:43:55;96530.72;;;17.29;76.20
9281;BME280;4679;47.966;7.958;2023-08-30T09:45:57;96536.38;;;17.41;75.92
9281;BME280;4679;47.966;7.958;2023-08-30T09:48:00;96532.22;;;17.35;76.14
9281;BME280;4679;47.966;7.958;2023-08-30T09:50:03;96537.56;;;17.35;75.79
9281;BME280;4679;47.966;7.958;2023-08-30T09:52:06;96538.44;;;17.44;75.81
9281;BME280;4679;47.966;7.958;2023-08-30T09:54:14;96535.16;;;17.47;75.62
9281;BME280;4679;47.966;7.958;2023-08-30T09:56:17;96536.69;;;17.39;75.79
9281;BME280;4679;47.966;7.958;2023-08-30T09:58:21;96541.91;;;17.44;75.69
9281;BME280;4679;47.966;7.958;2023-08-30T10:00:23;96523.63;;;17.46;75.66
9281;BME280;4679;47.966;7.958;2023-08-30T10:02:25;96537.25;;;17.50;75.34
9281;BME280;4679;47.966;7.958;2023-08-30T10:04:27;96534.63;;;17.58;75.47
9281;BME280;4679;47.966;7.958;2023-08-30T10:06:30;96527.22;;;17.55;75.41
9281;BME280;4679;47.966;7.958;2023-08-30T10:08:34;96530.41;;;17.44;75.75
9281;BME280;4679;47.966;7.958;2023-08-30T10:10:39;96531.22;;;17.31;76.58
9281;BME280;4679;47.966;7.958;2023-08-30T10:12:40;96530.56;;;17.25;76.36
9281;BME280;4679;47.966;7.958;2023-08-30T10:14:44;96525.50;;;17.23;76.09
9281;BME280;4679;47.966;7.958;2023-08-30T10:16:47;96533.59;;;17.32;76.14
9281;BME280;4679;47.966;7.958;2023-08-30T10:18:52;96537.38;;;17.31;76.13
9281;BME280;4679;47.966;7.958;2023-08-30T10:20:56;96537.09;;;17.19;76.45
9281;BME280;4679;47.966;7.958;2023-08-30T10:22:59;96532.47;;;17.11;76.53
9281;BME280;4679;47.966;7.958;2023-08-30T10:25:04;96531.47;;;17.07;76.65
9281;BME280;4679;47.966;7.958;2023-08-30T10:27:08;96530.66;;;17.06;77.10
9281;BME280;4679;47.966;7.958;2023-08-30T10:29:12;96525.59;;;17.05;76.79
9281;BME280;4679;47.966;7.958;2023-08-30T10:31:15;96522.91;;;17.05;76.66
9281;BME280;4679;47.966;7.958;2023-08-30T10:33:17;96521.03;;;17.05;76.56
9281;BME280;4679;47.966;7.958;2023-08-30T10:35:19;96518.66;;;17.04;77.04
9281;BME280;4679;47.966;7.958;2023-08-30T10:37:25;96522.72;;;17.01;77.15
9281;BME280;4679;47.966;7.958;2023-08-30T10:39:33;96516.56;;;17.01;76.69
9281;BME280;4679;47.966;7.958;2023-08-30T10:41:35;96514.16;;;17.13;76.76
9281;BME280;4679;47.966;7.958;2023-08-30T10:43:38;96512.97;;;17.19;76.68
9281;BME280;4679;47.966;7.958;2023-08-30T10:45:40;96505.44;;;17.21;76.10
9281;BME280;4679;47.966;7.958;2023-08-30T10:47:42;96508.88;;;17.35;76.12
9281;BME280;4679;47.966;7.958;2023-08-30T10:49:43;96511.56;;;17.35;76.16
9281;BME280;4679;47.966;7.958;2023-08-30T10:51:45;96508.88;;;17.35;76.16
9281;BME280;4679;47.966;7.958;2023-08-30T10:53:56;96506.19;;;17.35;76.32
9281;BME280;4679;47.966;7.958;2023-08-30T10:56:10;96507.47;;;17.38;76.17
9281;BME280;4679;47.966;7.958;2023-08-30T10:58:13;96514.59;;;17.42;75.80
9281;BME280;4679;47.966;7.958;2023-08-30T11:00:20;96512.13;;;17.46;76.01
9281;BME280;4679;47.966;7.958;2023-08-30T11:02:22;96505.41;;;17.57;75.51
9281;BME280;4679;47.966;7.958;2023-08-30T11:04:24;96517.38;;;17.65;75.22
9281;BME280;4679;47.966;7.958;2023-08-30T11:06:26;96521.69;;;17.74;75.37
9281;BME280;4679;47.966;7.958;2023-08-30T11:08:28;96507.06;;;17.80;75.03
9281;BME280;4679;47.966;7.958;2023-08-30T11:10:30;96520.72;;;17.92;74.82
9281;BME280;4679;47.966;7.958;2023-08-30T11:12:31;96514.47;;;17.97;74.62
9281;BME280;4679;47.966;7.958;2023-08-30T11:14:32;96508.41;;;17.91;74.28
9281;BME280;4679;47.966;7.958;2023-08-30T11:16:36;96515.00;;;17.85;74.33
9281;BME280;4679;47.966;7.958;2023-08-30T11:18:37;96506.03;;;17.90;74.62
9281;BME280;4679;47.966;7.958;2023-08-30T11:20:42;96507.41;;;17.87;74.18
9281;BME280;4679;47.966;7.958;2023-08-30T11:22:45;96508.22;;;17.88;74.29
9281;BME280;4679;47.966;7.958;2023-08-30T11:24:47;96504.06;;;18.04;73.87
9281;BME280;4679;47.966;7.958;2023-08-30T11:26:52;96500.94;;;18.33;73.27
9281;BME280;4679;47.966;7.958;2023-08-30T11:28:54;96500.63;;;18.66;72.50
9281;BME280;4679;47.966;7.958;2023-08-30T11:30:56;96497.09;;;18.87;71.68
9281;BME280;4679;47.966;7.958;2023-08-30T11:32:58;96492.38;;;19.02;71.33
9281;BME280;4679;47.966;7.958;2023-08-30T11:34:59;96495.91;;;19.28;70.95
9281;BME280;4679;47.966;7.958;2023-08-30T11:37:00;96494.16;;;19.32;70.86
9281;BME280;4679;47.966;7.958;2023-08-30T11:39:02;96486.09;;;19.23;71.27
9281;BME280;4679;47.966;7.958;2023-08-30T11:41:04;96487.38;;;19.35;70.80
9281;BME280;4679;47.966;7.958;2023-08-30T11:43:06;96484.56;;;19.57;70.44
9281;BME280;4679;47.966;7.958;2023-08-30T11:45:08;96468.56;;;19.78;70.10
9281;BME280;4679;47.966;7.958;2023-08-30T11:47:10;96478.69;;;19.89;69.46
9281;BME280;4679;47.966;7.958;2023-08-30T11:49:13;96476.00;;;19.89;69.35
9281;BME280;4679;47.966;7.958;2023-08-30T11:51:16;96474.41;;;19.71;69.58
9281;BME280;4679;47.966;7.958;2023-08-30T11:53:18;96474.41;;;19.45;70.22
9281;BME280;4679;47.966;7.958;2023-08-30T11:55:21;96469.16;;;19.31;70.37
9281;BME280;4679;47.966;7.958;2023-08-30T11:57:22;96469.97;;;19.23;70.79
9281;BME280;4679;47.966;7.958;2023-08-30T11:59:23;96470.59;;;19.20;70.67
9281;BME280;4679;47.966;7.958;2023-08-30T12:01:24;96471.69;;;19.19;70.65
9281;BME280;4679;47.966;7.958;2023-08-30T12:03:26;96471.53;;;19.33;70.11
9281;BME280;4679;47.966;7.958;2023-08-30T12:05:30;96463.19;;;19.60;69.63
9281;BME280;4679;47.966;7.958;2023-08-30T12:07:36;96462.69;;;19.93;68.75
9281;BME280;4679;47.966;7.958;2023-08-30T12:09:39;96469.13;;;20.18;68.14
9281;BME280;4679;47.966;7.958;2023-08-30T12:11:41;96459.28;;;20.30;67.63
9281;BME280;4679;47.966;7.958;2023-08-30T12:13:42;96469.53;;;20.54;67.17
9281;BME280;4679;47.966;7.958;2023-08-30T12:15:45;96461.38;;;20.71;66.56
9281;BME280;4679;47.966;7.958;2023-08-30T12:17:46;96454.38;;;20.70;66.95
9281;BME280;4679;47.966;7.958;2023-08-30T12:19:55;96451.19;;;20.77;66.67
9281;BME280;4679;47.966;7.958;2023-08-30T12:22:03;96448.34;;;21.03;66.01
9281;BME280;4679;47.966;7.958;2023-08-30T12:24:05;96448.34;;;21.03;65.65
9281;BME280;4679;47.966;7.958;2023-08-30T12:26:08;96456.16;;;20.96;65.52
9281;BME280;4679;47.966;7.958;2023-08-30T12:28:10;96446.16;;;20.96;65.71
9281;BME280;4679;47.966;7.958;2023-08-30T12:30:11;96445.50;;;20.99;65.61
9281;BME280;4679;47.966;7.958;2023-08-30T12:32:13;96448.94;;;20.79;65.90
9281;BME280;4679;47.966;7.958;2023-08-30T12:34:14;96444.63;;;20.49;66.19
9281;BME280;4679;47.966;7.958;2023-08-30T12:36:16;96442.56;;;20.54;65.68
9281;BME280;4679;47.966;7.958;2023-08-30T12:38:19;96443.75;;;20.36;66.03
9281;BME280;4679;47.966;7.958;2023-08-30T12:40:20;96440.72;;;20.46;65.32
9281;BME280;4679;47.966;7.958;2023-08-30T12:42:22;96439.94;;;20.28;65.79
9281;BME280;4679;47.966;7.958;2023-08-30T12:44:24;96436.06;;;20.55;64.84
9281;BME280;4679;47.966;7.958;2023-08-30T12:46:25;96434.72;;;20.70;64.33
9281;BME280;4679;47.966;7.958;2023-08-30T12:48:27;96433.44;;;20.76;64.30
9281;BME280;4679;47.966;7.958;2023-08-30T12:50:29;96435.44;;;20.88;63.92
9281;BME280;4679;47.966;7.958;2023-08-30T12:52:30;96431.19;;;20.78;64.09
9281;BME280;4679;47.966;7.958;2023-08-30T12:54:33;96438.13;;;20.88;63.74
9281;BME280;4679;47.966;7.958;2023-08-30T12:56:35;96431.94;;;20.87;63.54
9281;BME280;4679;47.966;7.958;2023-08-30T12:58:37;96437.88;;;21.01;62.95
9281;BME280;4679;47.966;7.958;2023-08-30T13:00:38;96436.28;;;21.00;63.06
9281;BME280;4679;47.966;7.958;2023-08-30T13:02:40;96440.16;;;21.20;62.29
9281;BME280;4679;47.966;7.958;2023-08-30T13:04:40;96444.13;;;21.14;62.03
9281;BME280;4679;47.966;7.958;2023-08-30T13:06:42;96436.03;;;21.23;62.22
9281;BME280;4679;47.966;7.958;2023-08-30T13:08:43;96439.91;;;21.34;61.32
9281;BME280;4679;47.966;7.958;2023-08-30T13:10:46;96439.72;;;21.10;61.69
9281;BME280;4679;47.966;7.958;2023-08-30T13:12:47;96434.09;;;21.44;61.05
9281;BME280;4679;47.966;7.958;2023-08-30T13:14:49;96435.88;;;21.61;60.20
9281;BME280;4679;47.966;7.958;2023-08-30T13:16:50;96425.63;;;21.87;59.49
9281;BME280;4679;47.966;7.958;2023-08-30T13:18:51;96425.94;;;22.19;59.21
9281;BME280;4679;47.966;7.958;2023-08-30T13:20:54;96428.31;;;22.20;58.91
9281;BME280;4679;47.966;7.958;2023-08-30T13:22:55;96431.44;;;21.77;59.67
9281;BME280;4679;47.966;7.958;2023-08-30T13:24:56;96434.63;;;21.58;60.30
9281;BME280;4679;47.966;7.958;2023-08-30T13:26:59;96435.81;;;21.49;60.21
9281;BME280;4679;47.966;7.958;2023-08-30T13:29:00;96426.09;;;21.35;60.41
9281;BME280;4679;47.966;7.958;2023-08-30T13:31:06;96420.59;;;21.65;59.63
9281;BME280;4679;47.966;7.958;2023-08-30T13:33:08;96423.59;;;21.84;59.26
9281;BME280;4679;47.966;7.958;2023-08-30T13:35:10;96422.19;;;21.99;59.11
9281;BME280;4679;47.966;7.958;2023-08-30T13:37:11;96420.34;;;22.36;58.08
9281;BME280;4679;47.966;7.958;2023-08-30T13:39:12;96422.25;;;22.35;57.95
9281;BME280;4679;47.966;7.958;2023-08-30T13:41:15;96422.72;;;22.37;58.11
9281;BME280;4679;47.966;7.958;2023-08-30T13:43:18;96418.78;;;22.47;57.77
9281;BME280;4679;47.966;7.958;2023-08-30T13:45:19;96423.59;;;22.17;58.67
9281;BME280;4679;47.966;7.958;2023-08-30T13:47:21;96410.19;;;21.88;58.73
9281;BME280;4679;47.966;7.958;2023-08-30T13:49:22;96419.81;;;21.64;59.47
9281;BME280;4679;47.966;7.958;2023-08-30T13:51:24;96422.91;;;21.54;59.37
9281;BME280;4679;47.966;7.958;2023-08-30T13:53:26;96430.34;;;21.57;59.37
9281;BME280;4679;47.966;7.958;2023-08-30T13:55:28;96426.41;;;21.88;58.53
9281;BME280;4679;47.966;7.958;2023-08-30T13:57:31;96413.50;;;21.93;58.38
9281;BME280;4679;47.966;7.958;2023-08-30T13:59:33;96423.38;;;21.89;58.53
9281;BME280;4679;47.966;7.958;2023-08-30T14:01:36;96422.03;;;21.83;58.70
9281;BME280;4679;47.966;7.958;2023-08-30T14:03:37;96423.44;;;22.01;58.04
9281;BME280;4679;47.966;7.958;2023-08-30T14:05:39;96421.78;;;22.21;57.41
9281;BME280;4679;47.966;7.958;2023-08-30T14:07:40;96425.44;;;22.50;57.06
9281;BME280;4679;47.966;7.958;2023-08-30T14:09:42;96422.19;;;22.56;56.87
9281;BME280;4679;47.966;7.958;2023-08-30T14:11:44;96424.31;;;22.38;56.44
9281;BME280;4679;47.966;7.958;2023-08-30T14:13:44;96426.44;;;22.33;56.93
9281;BME280;4679;47.966;7.958;2023-08-30T14:15:47;96426.09;;;22.34;56.59
9281;BME280;4679;47.966;7.958;2023-08-30T14:17:49;96425.53;;;22.29;56.53
9281;BME280;4679;47.966;7.958;2023-08-30T14:19:50;96418.09;;;22.50;55.99
9281;BME280;4679;47.966;7.958;2023-08-30T14:21:52;96428.84;;;22.59;55.81
9281;BME280;4679;47.966;7.958;2023-08-30T14:23:56;96426.59;;;22.61;55.55
9281;BME280;4679;47.966;7.958;2023-08-30T14:25:58;96426.78;;;22.68;55.28
9281;BME280;4679;47.966;7.958;2023-08-30T14:28:00;96430.06;;;22.73;54.95
9281;BME280;4679;47.966;7.958;2023-08-30T14:30:01;96437.38;;;22.49;55.23
9281;BME280;4679;47.966;7.958;2023-08-30T14:32:04;96431.97;;;22.36;55.46
9281;BME280;4679;47.966;7.958;2023-08-30T14:34:05;96440.72;;;22.21;55.52
9281;BME280;4679;47.966;7.958;2023-08-30T14:36:08;96440.91;;;22.04;56.00
9281;BME280;4679;47.966;7.958;2023-08-30T14:38:10;96427.75;;;21.82;56.06
9281;BME280;4679;47.966;7.958;2023-08-30T14:40:12;96437.59;;;21.65;56.42
9281;BME280;4679;47.966;7.958;2023-08-30T14:42:14;96441.38;;;21.52;56.40
9281;BME280;4679;47.966;7.958;2023-08-30T14:44:15;96434.91;;;21.45;56.66
9281;BME280;4679;47.966;7.958;2023-08-30T14:46:17;96430.75;;;21.26;56.49
9281;BME280;4679;47.966;7.958;2023-08-30T14:48:21;96426.38;;;21.13;56.84
9281;BME280;4679;47.966;7.958;2023-08-30T14:50:23;96435.00;;;21.06;57.19
9281;BME280;4679;47.966;7.958;2023-08-30T14:52:25;96432.63;;;21.05;56.99
9281;BME280;4679;47.966;7.958;2023-08-30T14:54:26;96426.16;;;20.97;56.98
9281;BME280;4679;47.966;7.958;2023-08-30T14:56:29;96433.53;;;20.88;57.09
9281;BME280;4679;47.966;7.958;2023-08-30T14:58:31;96430.53;;;20.81;57.17
9281;BME280;4679;47.966;7.958;2023-08-30T15:00:33;96431.56;;;20.68;57.38
9281;BME280;4679;47.966;7.958;2023-08-30T15:02:34;96426.63;;;20.70;57.35
9281;BME280;4679;47.966;7.958;2023-08-30T15:04:37;96431.22;;;20.69;56.96
9281;BME280;4679;47.966;7.958;2023-08-30T15:06:39;96433.75;;;20.75;56.58
9281;BME280;4679;47.966;7.958;2023-08-30T15:08:41;96433.88;;;20.78;57.19
9281;BME280;4679;47.966;7.958;2023-08-30T15:10:43;96440.41;;;20.77;57.09
9281;BME280;4679;47.966;7.958;2023-08-30T15:12:43;96426.25;;;20.80;56.80
9281;BME280;4679;47.966;7.958;2023-08-30T15:14:45;96435.50;;;20.70;57.02
9281;BME280;4679;47.966;7.958;2023-08-30T15:16:47;96431.41;;;20.64;57.25
9281;BME280;4679;47.966;7.958;2023-08-30T15:18:48;96440.50;;;20.60;57.26
9281;BME280;4679;47.966;7.958;2023-08-30T15:20:52;96434.94;;;20.56;57.21
9281;BME280;4679;47.966;7.958;2023-08-30T15:22:55;96435.63;;;20.45;57.35
9281;BME280;4679;47.966;7.958;2023-08-30T15:24:59;96438.53;;;20.31;57.50
9281;BME280;4679;47.966;7.958;2023-08-30T15:27:02;96433.47;;;20.21;57.35
9281;BME280;4679;47.966;7.958;2023-08-30T15:29:04;96432.50;;;20.17;57.35
9281;BME280;4679;47.966;7.958;2023-08-30T15:31:05;96429.69;;;20.13;57.27
9281;BME280;4679;47.966;7.958;2023-08-30T15:33:08;96426.84;;;20.10;57.00
9281;BME280;4679;47.966;7.958;2023-08-30T15:35:10;96427.63;;;20.10;56.89
9281;BME280;4679;47.966;7.958;2023-08-30T15:37:13;96432.22;;;20.10;56.86
9281;BME280;4679;47.966;7.958;2023-08-30T15:39:15;96424.31;;;20.13;56.44
9281;BME280;4679;47.966;7.958;2023-08-30T15:41:17;96423.78;;;20.20;56.25
9281;BME280;4679;47.966;7.958;2023-08-30T15:43:18;96425.03;;;20.31;56.10
9281;BME280;4679;47.966;7.958;2023-08-30T15:45:19;96431.16;;;20.49;55.90
9281;BME280;4679;47.966;7.958;2023-08-30T15:47:21;96429.00;;;20.71;54.97
9281;BME280;4679;47.966;7.958;2023-08-30T15:49:23;96426.53;;;20.87;55.07
9281;BME280;4679;47.966;7.958;2023-08-30T15:51:24;96423.00;;;20.95;54.78
9281;BME280;4679;47.966;7.958;2023-08-30T15:53:28;96425.66;;;21.04;54.92
9281;BME280;4679;47.966;7.958;2023-08-30T15:55:30;96422.22;;;21.16;54.25
9281;BME280;4679;47.966;7.958;2023-08-30T15:57:32;96418.88;;;21.19;53.83
9281;BME280;4679;47.966;7.958;2023-08-30T15:59:33;96415.81;;;21.29;54.04
9281;BME280;4679;47.966;7.958;2023-08-30T16:01:35;96415.00;;;21.28;53.86
9281;BME280;4679;47.966;7.958;2023-08-30T16:03:36;96412.66;;;21.27;53.68
9281;BME280;4679;47.966;7.958;2023-08-30T16:05:38;96413.19;;;21.20;53.35
9281;BME280;4679;47.966;7.958;2023-08-30T16:07:40;96417.84;;;21.32;53.10
9281;BME280;4679;47.966;7.958;2023-08-30T16:09:43;96410.94;;;21.43;53.21
9281;BME280;4679;47.966;7.958;2023-08-30T16:11:46;96423.25;;;21.32;52.89
9281;BME280;4679;47.966;7.958;2023-08-30T16:13:48;96412.22;;;21.16;53.20
9281;BME280;4679;47.966;7.958;2023-08-30T16:15:49;96417.78;;;21.20;53.29
9281;BME280;4679;47.966;7.958;2023-08-30T16:17:51;96418.00;;;21.35;52.49
9281;BME280;4679;47.966;7.958;2023-08-30T16:19:53;96416.69;;;21.21;52.63
9281;BME280;4679;47.966;7.958;2023-08-30T16:21:54;96416.91;;;21.07;52.91
9281;BME280;4679;47.966;7.958;2023-08-30T16:23:56;96419.13;;;21.05;52.82
9281;BME280;4679;47.966;7.958;2023-08-30T16:25:59;96423.00;;;20.95;52.95
9281;BME280;4679;47.966;7.958;2023-08-30T16:28:00;96421.00;;;20.84;53.02
9281;BME280;4679;47.966;7.958;2023-08-30T16:30:04;96418.94;;;20.81;52.72
9281;BME280;4679;47.966;7.958;2023-08-30T16:32:05;96423.28;;;20.73;52.77
9281;BME280;4679;47.966;7.958;2023-08-30T16:34:07;96424.00;;;20.61;52.75
9281;BME280;4679;47.966;7.958;2023-08-30T16:36:08;96421.06;;;20.46;52.94
9281;BME280;4679;47.966;7.958;2023-08-30T16:38:10;96416.47;;;20.38;52.73
9281;BME280;4679;47.966;7.958;2023-08-30T16:40:12;96421.09;;;20.28;53.06
9281;BME280;4679;47.966;7.958;2023-08-30T16:42:17;96429.34;;;20.23;53.02
9281;BME280;4679;47.966;7.958;2023-08-30T16:44:19;96431.75;;;20.16;52.93
9281;BME280;4679;47.966;7.958;2023-08-30T16:46:20;96430.34;;;20.10;52.99
9281;BME280;4679;47.966;7.958;2023-08-30T16:48:22;96430.69;;;20.00;53.01
9281;BME280;4679;47.966;7.958;2023-08-30T16:50:23;96426.72;;;19.89;53.19
9281;BME280;4679;47.966;7.958;2023-08-30T16:52:25;96430.41;;;19.84;52.88
9281;BME280;4679;47.966;7.958;2023-08-30T16:54:27;96428.19;;;19.78;53.33
9281;BME280;4679;47.966;7.958;2023-08-30T16:56:28;96431.03;;;19.73;52.95
9281;BME280;4679;47.966;7.958;2023-08-30T16:58:32;96423.13;;;19.67;52.80
9281;BME280;4679;47.966;7.958;2023-08-30T17:00:33;96432.00;;;19.59;53.26
9281;BME280;4679;47.966;7.958;2023-08-30T17:02:35;96421.41;;;19.54;53.32
9281;BME280;4679;47.966;7.958;2023-08-30T17:04:37;96423.94;;;19.51;53.44
9281;BME280;4679;47.966;7.958;2023-08-30T17:06:39;96429.91;;;19.48;53.35
9281;BME280;4679;47.966;7.958;2023-08-30T17:08:40;96425.16;;;19.45;53.32
9281;BME280;4679;47.966;7.958;2023-08-30T17:10:42;96424.22;;;19.41;53.43
9281;BME280;4679;47.966;7.958;2023-08-30T17:12:44;96431.19;;;19.33;53.49
9281;BME280;4679;47.966;7.958;2023-08-30T17:14:47;96428.97;;;19.26;53.64
9281;BME280;4679;47.966;7.958;2023-08-30T17:16:48;96431.81;;;19.21;53.69
9281;BME280;4679;47.966;7.958;2023-08-30T17:18:50;96431.66;;;19.18;53.71
9281;BME280;4679;47.966;7.958;2023-08-30T17:20:52;96436.88;;;19.14;53.56
9281;BME280;4679;47.966;7.958;2023-08-30T17:22:53;96437.50;;;19.11;54.15
9281;BME280;4679;47.966;7.958;2023-08-30T17:24:55;96435.44;;;19.08;53.80
9281;BME280;4679;47.966;7.958;2023-08-30T17:26:57;96435.59;;;19.03;53.82
9281;BME280;4679;47.966;7.958;2023-08-30T17:28:59;96445.69;;;18.97;53.98
9281;BME280;4679;47.966;7.958;2023-08-30T17:31:03;96453.94;;;18.92;54.19
9281;BME280;4679;47.966;7.958;2023-08-30T17:33:06;96447.59;;;18.88;54.09
9281;BME280;4679;47.966;7.958;2023-08-30T17:35:08;96453.09;;;18.83;54.33
9281;BME280;4679;47.966;7.958;2023-08-30T17:37:09;96456.25;;;18.77;54.33
9281;BME280;4679;47.966;7.958;2023-08-30T17:39:11;96465.25;;;18.72;54.35
9281;BME280;4679;47.966;7.958;2023-08-30T17:41:14;96460.63;;;18.64;54.85
9281;BME280;4679;47.966;7.958;2023-08-30T17:43:15;96463.25;;;18.47;55.14